Time;durP1;ratioP1;P1;durP2;ratioP2;P2;SDS_P1;SDS_P2;PMS_P1;PMS_P2;Temp;Humidity;BMP_temperature;BMP_pressure;BME280_temperature;BME280_humidity;BME280_pressure;Samples;Min_cycle;Max_cycle;Signal;HPM_P1;HPM_P2
2022/07/07 00:01:02;;;;;;;8.68;4.47;;;;;;;18.23;71.78;98405.44;4517966;31;20170;-79
2022/07/07 00:03:29;;;;;;;8.30;4.50;;;;;;;17.92;72.70;98407.50;4518177;31;20112;-79
2022/07/07 00:05:58;;;;;;;9.32;4.60;;;;;;;17.63;73.87;98399.78;4518093;31;20429;-79
2022/07/07 00:08:25;;;;;;;9.88;5.15;;;;;;;17.31;75.02;98398.44;4503623;31;20095;-79
2022/07/07 00:10:52;;;;;;;8.65;5.00;;;;;;;17.61;74.32;98404.28;4518119;31;20167;-79
2022/07/07 00:13:19;;;;;;;7.87;4.57;;;;;;;17.67;74.06;98404.81;4517798;31;20120;-79
2022/07/07 00:15:46;;;;;;;8.18;4.12;;;;;;;17.50;74.97;98403.31;4517923;31;20159;-79
2022/07/07 00:18:14;;;;;;;9.77;4.90;;;;;;;17.34;76.13;98406.91;4518112;31;20407;-79
2022/07/07 00:20:41;;;;;;;8.98;4.75;;;;;;;17.19;77.29;98407.87;4517678;31;20763;-79
2022/07/07 00:23:08;;;;;;;8.13;4.62;;;;;;;17.43;76.42;98395.03;4517885;31;20124;-79
2022/07/07 00:25:35;;;;;;;9.43;5.15;;;;;;;17.50;76.11;98403.31;4517842;31;20130;-79
2022/07/07 00:28:02;;;;;;;9.02;4.90;;;;;;;17.08;78.32;98401.69;4517643;31;20122;-79
2022/07/07 00:30:29;;;;;;;8.95;4.97;;;;;;;16.77;79.68;98394.00;4517831;31;20410;-79
2022/07/07 00:32:56;;;;;;;9.50;5.03;;;;;;;17.47;77.25;98398.28;4517749;31;20155;-79
2022/07/07 00:35:23;;;;;;;9.20;4.55;;;;;;;17.55;76.48;98403.84;4517135;31;20156;-79
2022/07/07 00:37:50;;;;;;;11.27;5.00;;;;;;;17.62;75.89;98392.87;4517772;31;20140;-79
2022/07/07 00:40:17;;;;;;;8.63;4.97;;;;;;;17.43;76.61;98389.81;4517795;31;20118;-79
2022/07/07 00:42:44;;;;;;;9.00;4.75;;;;;;;17.12;77.80;98387.50;4519314;31;20147;-79
2022/07/07 00:45:11;;;;;;;8.00;4.75;;;;;;;17.48;76.71;98385.13;4519869;31;20107;-79
2022/07/07 00:47:40;;;;;;;8.48;4.35;;;;;;;17.69;75.73;98390.75;4520237;31;20095;-79
2022/07/07 00:50:08;;;;;;;10.60;5.00;;;;;;;17.67;76.03;98383.94;4519735;31;20143;-79
2022/07/07 00:52:35;;;;;;;9.20;4.93;;;;;;;17.79;75.07;98376.16;4505592;31;20484;-79
2022/07/07 00:55:03;;;;;;;9.00;4.55;;;;;;;17.79;75.77;98367.50;4519873;31;20095;-79
2022/07/07 00:57:30;;;;;;;9.40;4.85;;;;;;;17.91;75.55;98372.72;4519721;31;20136;-79
2022/07/07 01:00:05;;;;;;;10.90;5.15;;;;;;;17.88;75.50;98369.50;4519965;31;20163;-79
2022/07/07 01:02:32;;;;;;;9.35;5.00;;;;;;;17.79;76.16;98364.88;4519731;31;20068;-79
2022/07/07 01:05:03;;;;;;;13.73;5.55;;;;;;;17.85;75.84;98369.69;4519926;31;20126;-79
2022/07/07 01:07:30;;;;;;;11.25;5.40;;;;;;;17.69;76.85;98369.87;4519994;31;20155;-79
2022/07/07 01:09:59;;;;;;;9.43;4.90;;;;;;;17.71;77.36;98365.38;4519629;31;20099;-79
2022/07/07 01:12:32;;;;;;;9.88;4.68;;;;;;;17.66;76.87;98366.62;4519851;31;20171;-79
2022/07/07 01:14:59;;;;;;;8.88;4.70;;;;;;;17.75;75.33;98373.84;4519751;31;20115;-79
2022/07/07 01:17:26;;;;;;;8.13;4.75;;;;;;;17.54;76.22;98374.28;4519421;31;20163;-79
2022/07/07 01:19:53;;;;;;;9.13;4.78;;;;;;;17.55;76.06;98377.75;4492438;31;20158;-79
2022/07/07 01:22:23;;;;;;;9.30;5.32;;;;;;;17.62;75.82;98371.19;4519799;31;20092;-79
2022/07/07 01:24:50;;;;;;;10.23;5.20;;;;;;;17.59;75.53;98368.78;4519212;31;20115;-79
2022/07/07 01:27:20;;;;;;;9.68;5.05;;;;;;;17.47;75.61;98375.66;4519852;31;20092;-79
2022/07/07 01:29:49;;;;;;;8.57;4.47;;;;;;;17.41;75.49;98373.44;4519764;31;20565;-79
2022/07/07 01:32:16;;;;;;;8.68;4.87;;;;;;;17.18;76.78;98377.53;4519292;31;20092;-79
2022/07/07 01:34:45;;;;;;;9.55;5.55;;;;;;;16.89;77.93;98365.50;4519238;31;20524;-79
2022/07/07 01:37:12;;;;;;;9.57;5.35;;;;;;;17.04;77.41;98373.22;4519654;31;20105;-79
2022/07/07 01:39:40;;;;;;;10.13;5.62;;;;;;;16.78;78.57;98381.81;4519346;31;20110;-79
2022/07/07 01:42:08;;;;;;;9.70;5.37;;;;;;;16.71;78.60;98378.78;4519639;31;20111;-79
2022/07/07 01:44:38;;;;;;;10.68;5.72;;;;;;;16.43;79.52;98381.38;4519135;31;20188;-79
2022/07/07 01:47:06;;;;;;;11.70;5.60;;;;;;;16.21;80.31;98387.03;4519673;31;20403;-79
2022/07/07 01:49:34;;;;;;;9.90;5.70;;;;;;;16.30;79.68;98376.06;4519539;31;20083;-79
2022/07/07 01:52:03;;;;;;;10.80;4.90;;;;;;;16.26;79.85;98373.75;4519221;31;20101;-79
2022/07/07 01:54:32;;;;;;;9.98;5.60;;;;;;;16.55;78.25;98369.34;4519328;31;20110;-79
2022/07/07 01:56:59;;;;;;;9.65;5.10;;;;;;;16.59;78.05;98368.22;4519544;31;20112;-79
2022/07/07 01:59:26;;;;;;;12.15;5.30;;;;;;;16.37;78.91;98374.75;4519147;31;20142;-79
2022/07/07 02:01:53;;;;;;;10.45;5.40;;;;;;;16.63;77.88;98369.72;4519519;31;20156;-79
2022/07/07 02:04:20;;;;;;;8.73;5.12;;;;;;;16.51;77.84;98380.91;4519441;31;20126;-79
2022/07/07 02:06:47;;;;;;;10.73;5.30;;;;;;;16.31;78.47;98382.12;4519167;31;20114;-79
2022/07/07 02:09:15;;;;;;;11.07;6.10;;;;;;;16.22;79.57;98378.31;4519453;31;20162;-79
2022/07/07 02:11:42;;;;;;;9.57;5.07;;;;;;;16.16;79.73;98381.25;4519542;31;20115;-79
2022/07/07 02:14:09;;;;;;;9.93;6.07;;;;;;;16.11;79.95;98378.94;4504672;31;20151;-79
2022/07/07 02:16:37;;;;;;;10.93;5.75;;;;;;;16.00;80.41;98375.31;4519222;31;20115;-79
2022/07/07 02:19:08;;;;;;;11.20;6.00;;;;;;;16.00;80.72;98376.16;4519515;31;20158;-79
2022/07/07 02:21:35;;;;;;;10.38;6.20;;;;;;;15.78;81.66;98367.94;4519082;31;20115;-79
2022/07/07 02:24:03;;;;;;;11.35;5.47;;;;;;;15.79;81.10;98361.81;4519330;31;20096;-79
2022/07/07 02:26:33;;;;;;;12.63;5.90;;;;;;;15.69;82.50;98377.13;4519278;31;20171;-79
2022/07/07 02:29:02;;;;;;;10.25;6.05;;;;;;;16.12;80.62;98377.19;4519286;31;20433;-79
2022/07/07 02:31:29;;;;;;;10.00;5.78;;;;;;;15.91;81.27;98374.09;4519357;31;20102;-79
2022/07/07 02:33:57;;;;;;;14.10;6.10;;;;;;;15.88;80.90;98366.47;4518647;31;20590;-79
2022/07/07 02:36:24;;;;;;;9.35;5.80;;;;;;;16.02;80.67;98373.44;4519186;31;20528;-79
2022/07/07 02:38:51;;;;;;;10.23;5.55;;;;;;;16.19;80.31;98375.91;4519301;31;20162;-79
2022/07/07 02:41:19;;;;;;;11.88;5.95;;;;;;;16.18;79.77;98379.44;4518876;31;20106;-79
2022/07/07 02:43:46;;;;;;;10.00;5.78;;;;;;;16.02;80.62;98383.84;4519190;31;20147;-79
2022/07/07 02:46:14;;;;;;;10.60;5.85;;;;;;;15.86;81.25;98381.34;4519080;31;20579;-79
2022/07/07 02:48:41;;;;;;;10.20;5.37;;;;;;;15.81;82.05;98384.19;4518948;31;20080;-79
2022/07/07 02:51:08;;;;;;;12.65;6.15;;;;;;;15.96;81.53;98377.28;4519113;31;20466;-79
2022/07/07 02:53:36;;;;;;;10.82;5.80;;;;;;;16.00;81.45;98377.91;4519045;31;20573;-79
2022/07/07 02:56:03;;;;;;;10.25;5.80;;;;;;;15.91;82.04;98371.47;4518699;31;20355;-79
2022/07/07 02:58:31;;;;;;;13.00;6.15;;;;;;;15.76;82.94;98368.03;4519273;31;20076;-79
2022/07/07 03:00:58;;;;;;;9.70;5.65;;;;;;;15.85;81.99;98374.47;4519101;31;20076;-79
2022/07/07 03:03:25;;;;;;;9.10;5.10;;;;;;;16.16;81.15;98373.44;4518451;31;20545;-79
2022/07/07 03:05:52;;;;;;;11.35;5.90;;;;;;;16.18;80.61;98382.88;4518542;31;20091;-79
2022/07/07 03:08:19;;;;;;;10.48;6.00;;;;;;;15.93;82.17;98377.44;4519089;31;20159;-79
2022/07/07 03:10:46;;;;;;;11.25;5.60;;;;;;;15.97;81.98;98378.94;4518643;31;20088;-79
2022/07/07 03:13:13;;;;;;;9.30;5.70;;;;;;;16.08;81.29;98371.34;4519001;31;20126;-79
2022/07/07 03:15:40;;;;;;;12.93;5.78;;;;;;;16.22;80.82;98375.69;4518904;31;20096;-79
2022/07/07 03:18:07;;;;;;;9.25;5.43;;;;;;;15.99;81.28;98376.25;4518840;31;20087;-79
2022/07/07 03:20:35;;;;;;;9.65;5.70;;;;;;;15.79;82.42;98378.25;4518842;31;20072;-79
2022/07/07 03:23:02;;;;;;;11.10;5.57;;;;;;;16.17;81.41;98377.75;4518472;31;20156;-79
2022/07/07 03:25:29;;;;;;;12.35;5.03;;;;;;;16.22;81.43;98380.91;4518667;31;20100;-79
2022/07/07 03:27:56;;;;;;;10.68;5.80;;;;;;;16.37;80.87;98381.72;4504565;31;20088;-79
2022/07/07 03:30:23;;;;;;;9.27;5.30;;;;;;;16.17;81.80;98377.75;4518335;31;20135;-79
2022/07/07 03:32:50;;;;;;;9.35;5.30;;;;;;;16.45;80.06;98377.75;4518603;31;20091;-79
2022/07/07 03:35:17;;;;;;;12.25;5.07;;;;;;;16.57;79.83;98367.50;4518504;31;20497;-79
2022/07/07 03:37:44;;;;;;;12.57;5.20;;;;;;;17.04;77.24;98380.19;4518369;31;20186;-79
2022/07/07 03:40:12;;;;;;;9.55;5.20;;;;;;;17.02;77.07;98377.69;4518664;31;20076;-79
2022/07/07 03:42:39;;;;;;;9.85;4.80;;;;;;;16.99;76.68;98380.47;4518559;31;20143;-79
2022/07/07 03:45:07;;;;;;;8.85;4.57;;;;;;;17.12;76.90;98384.91;4517960;31;20148;-79
2022/07/07 03:47:35;;;;;;;8.55;4.75;;;;;;;17.31;77.16;98381.00;4518614;31;20128;-79
2022/07/07 03:50:02;;;;;;;10.20;5.10;;;;;;;17.51;76.58;98379.72;4518522;31;20418;-79
2022/07/07 03:52:29;;;;;;;8.38;4.40;;;;;;;17.81;75.07;98374.28;4518043;31;20140;-79
2022/07/07 03:54:56;;;;;;;9.23;4.40;;;;;;;18.19;72.47;98371.69;4518248;31;20095;-79
2022/07/07 03:57:23;;;;;;;11.00;4.90;;;;;;;17.91;73.61;98377.94;4518499;31;20442;-79
2022/07/07 03:59:50;;;;;;;11.90;4.93;;;;;;;18.01;74.39;98379.94;4518041;31;20510;-79
2022/07/07 04:02:17;;;;;;;8.68;4.75;;;;;;;18.28;73.58;98380.66;4518319;31;20099;-79
2022/07/07 04:04:44;;;;;;;8.32;4.57;;;;;;;18.29;72.50;98371.03;4518023;31;20091;-79
2022/07/07 04:07:12;;;;;;;10.32;4.70;;;;;;;18.50;72.10;98374.78;4517968;31;20378;-79
2022/07/07 04:09:39;;;;;;;10.32;4.60;;;;;;;18.47;72.36;98367.16;4518185;31;20575;-79
2022/07/07 04:12:06;;;;;;;10.82;5.00;;;;;;;18.71;71.31;98373.28;4517890;31;20418;-79
2022/07/07 04:14:33;;;;;;;8.88;4.97;;;;;;;18.59;71.89;98368.06;4518027;31;20153;-79
2022/07/07 04:17:00;;;;;;;9.77;4.45;;;;;;;18.83;72.96;98365.56;4519274;31;20142;-79
2022/07/07 04:19:28;;;;;;;7.28;4.03;;;;;;;19.63;68.83;98371.91;4519890;31;20147;-79
2022/07/07 04:21:55;;;;;;;7.30;3.85;;;;;;;19.64;68.72;98368.34;4520226;31;20083;-79
2022/07/07 04:24:22;;;;;;;8.20;4.07;;;;;;;19.96;68.66;98371.16;4520244;31;20156;-79
2022/07/07 04:26:49;;;;;;;9.15;4.28;;;;;;;20.35;67.48;98369.87;4519888;31;20147;-79
2022/07/07 04:29:16;;;;;;;7.93;3.87;;;;;;;20.58;66.46;98362.06;4520234;31;20076;-79
2022/07/07 04:31:49;;;;;;;8.90;4.12;;;;;;;20.60;67.37;98357.50;4520299;31;20087;-82
2022/07/07 04:34:16;;;;;;;7.05;3.72;;;;;;;20.87;65.93;98352.72;4519652;31;20510;-82
2022/07/07 04:36:43;;;;;;;8.95;4.00;;;;;;;20.64;66.35;98351.09;4519993;31;20080;-82
2022/07/07 04:39:10;;;;;;;8.50;4.30;;;;;;;21.01;66.02;98362.94;4520241;31;20067;-82
2022/07/07 04:41:37;;;;;;;9.95;3.87;;;;;;;21.57;65.11;98361.91;4519830;31;20151;-82
2022/07/07 04:44:05;;;;;;;8.32;3.90;;;;;;;22.23;61.76;98362.50;4519986;31;20087;-82
2022/07/07 04:46:33;;;;;;;9.10;3.83;;;;;;;22.29;62.20;98372.50;4519987;31;20092;-82
2022/07/07 04:49:00;;;;;;;9.43;3.67;;;;;;;21.69;63.50;98367.94;4519816;31;20084;-82
2022/07/07 04:51:28;;;;;;;6.72;3.70;;;;;;;21.85;63.19;98363.91;4520007;31;20206;-82
2022/07/07 04:53:55;;;;;;;8.32;3.78;;;;;;;22.03;64.00;98366.81;4519904;31;20122;-82
2022/07/07 04:56:22;;;;;;;7.90;3.78;;;;;;;23.01;60.29;98372.34;4519825;31;20106;-81
2022/07/07 04:58:49;;;;;;;10.32;4.15;;;;;;;23.67;58.01;98374.34;4520020;31;20414;-81
2022/07/07 05:01:16;;;;;;;9.40;3.83;;;;;;;24.99;54.35;98366.31;4519665;31;20091;-81
2022/07/07 05:03:43;;;;;;;12.10;4.00;;;;;;;26.12;50.21;98370.94;4520026;31;20096;-82
2022/07/07 05:06:10;;;;;;;8.50;3.53;;;;;;;27.09;47.86;98367.94;4519884;31;20182;-82
2022/07/07 05:08:38;;;;;;;7.20;3.60;;;;;;;28.47;44.78;98375.06;4519614;31;20098;-82
2022/07/07 05:11:05;;;;;;;8.23;3.62;;;;;;;28.93;43.82;98364.63;4519931;31;20110;-82
2022/07/07 05:13:32;;;;;;;8.77;3.25;;;;;;;29.87;42.64;98367.94;4519818;31;20131;-82
2022/07/07 05:15:59;;;;;;;9.40;3.50;;;;;;;30.24;42.68;98365.28;4519466;31;20177;-82
2022/07/07 05:18:26;;;;;;;6.35;3.17;;;;;;;30.84;40.89;98368.78;4519778;31;20115;-82
2022/07/07 05:20:53;;;;;;;5.97;3.00;;;;;;;30.45;40.97;98369.03;4519823;31;20111;-82
2022/07/07 05:23:20;;;;;;;9.15;3.45;;;;;;;30.61;40.65;98365.34;4519354;31;20438;-82
2022/07/07 05:25:47;;;;;;;7.47;3.50;;;;;;;30.84;41.09;98367.91;4519722;31;20608;-82
2022/07/07 05:28:14;;;;;;;4.62;2.25;;;;;;;31.03;41.85;98359.34;4519520;31;20136;-82
2022/07/07 05:30:41;;;;;;;7.15;2.20;;;;;;;30.20;35.52;98360.47;4519341;31;20455;-82
2022/07/07 05:33:08;;;;;;;4.15;2.10;;;;;;;30.74;34.00;98354.91;4519495;31;20446;-82
2022/07/07 05:35:35;;;;;;;3.78;1.83;;;;;;;31.10;33.17;98352.25;4519731;31;20162;-82
2022/07/07 05:38:03;;;;;;;2.20;1.70;;;;;;;30.88;32.83;98364.72;4519139;31;20120;-82
2022/07/07 05:40:30;;;;;;;5.03;1.90;;;;;;;30.52;33.72;98364.66;4519604;31;20126;-82
2022/07/07 05:42:57;;;;;;;5.05;1.90;;;;;;;29.90;33.15;98355.13;4505257;31;20148;-82
2022/07/07 05:45:24;;;;;;;5.82;1.98;;;;;;;29.39;33.27;98354.03;4519155;31;20145;-82
2022/07/07 05:47:51;;;;;;;4.37;2.00;;;;;;;27.78;37.31;98359.75;4519572;31;20151;-82
2022/07/07 05:50:19;;;;;;;4.57;1.83;;;;;;;27.53;37.56;98351.75;4519175;31;20150;-82
2022/07/07 05:52:46;;;;;;;5.03;2.22;;;;;;;27.56;38.02;98358.56;4519419;31;20151;-82
2022/07/07 05:55:13;;;;;;;5.62;1.90;;;;;;;27.24;39.66;98357.56;4519354;31;20108;-81
2022/07/07 05:57:40;;;;;;;4.40;2.10;;;;;;;28.43;38.37;98359.66;4519157;31;20154;-81
2022/07/07 06:00:07;;;;;;;4.28;2.10;;;;;;;28.67;36.88;98367.50;4519486;31;20139;-82
2022/07/07 06:02:34;;;;;;;4.15;1.92;;;;;;;28.82;34.64;98357.00;4519546;31;20143;-82
2022/07/07 06:05:02;;;;;;;4.68;2.00;;;;;;;28.75;34.18;98364.00;4518956;31;20159;-81
2022/07/07 06:07:29;;;;;;;3.85;1.80;;;;;;;28.28;34.81;98356.84;4519492;31;20084;-81
2022/07/07 06:09:56;;;;;;;4.85;1.87;;;;;;;27.94;33.72;98368.50;4522109;31;20075;-81
2022/07/07 06:12:23;;;;;;;4.60;1.98;;;;;;;27.90;34.05;98369.84;4523602;31;20108;-81
2022/07/07 06:14:50;;;;;;;4.28;1.92;;;;;;;27.48;35.22;98375.28;4522782;31;20103;-82
2022/07/07 06:17:17;;;;;;;8.05;2.20;;;;;;;27.12;36.72;98368.63;4520139;31;20559;-82
2022/07/07 06:19:44;;;;;;;6.05;1.90;;;;;;;27.41;37.72;98366.31;4522780;31;20056;-83
2022/07/07 06:22:11;;;;;;;4.07;2.20;;;;;;;28.47;34.84;98368.91;4521335;31;20422;-83
2022/07/07 06:24:41;;;;;;;5.87;1.98;;;;;;;27.74;34.36;98371.66;4519121;31;20104;-84
2022/07/07 06:27:08;;;;;;;4.15;2.17;;;;;;;27.72;35.22;98377.16;4519024;31;20519;-84
2022/07/07 06:29:35;;;;;;;3.75;1.90;;;;;;;27.37;34.71;98367.66;4519433;31;20115;-85
2022/07/07 06:32:03;;;;;;;6.80;1.83;;;;;;;27.67;34.67;98374.19;4519258;31;20159;-86
2022/07/07 06:34:30;;;;;;;5.32;2.03;;;;;;;27.55;32.67;98367.53;4520757;31;20052;-83
2022/07/07 06:36:57;;;;;;;2.92;1.80;;;;;;;26.66;34.07;98362.81;4521428;31;20095;-81
2022/07/07 06:39:25;;;;;;;4.25;1.92;;;;;;;26.79;33.74;98361.34;4517593;31;20087;-81
2022/07/07 06:41:51;;;;;;;3.47;1.87;;;;;;;26.74;34.99;98363.66;4518906;31;20235;-81
2022/07/07 06:44:19;;;;;;;3.25;1.83;;;;;;;26.86;33.30;98356.25;4519142;31;20092;-82
2022/07/07 06:46:46;;;;;;;5.87;1.90;;;;;;;26.16;33.68;98361.72;4518995;31;20088;-82
2022/07/07 06:49:13;;;;;;;3.20;1.65;;;;;;;26.66;32.83;98352.22;4519127;31;20111;-82
2022/07/07 06:51:40;;;;;;;3.85;1.87;;;;;;;26.69;33.04;98358.03;4519175;31;20067;-82
2022/07/07 06:54:07;;;;;;;4.78;1.98;;;;;;;26.81;33.54;98350.62;4504832;31;20108;-82
2022/07/07 06:56:34;;;;;;;4.55;2.10;;;;;;;27.28;33.05;98358.03;4520295;31;20152;-83
2022/07/07 06:59:01;;;;;;;2.92;1.75;;;;;;;26.55;33.95;98361.28;4519110;31;20113;-81
2022/07/07 07:01:28;;;;;;;4.47;2.33;;;;;;;27.20;33.29;98356.19;4518647;31;20131;-81
2022/07/07 07:03:55;;;;;;;2.87;1.80;;;;;;;27.44;34.05;98359.91;4518908;31;20743;-82
2022/07/07 07:06:22;;;;;;;4.43;1.95;;;;;;;27.80;32.28;98366.53;4519019;31;20156;-83
2022/07/07 07:08:49;;;;;;;4.90;1.80;;;;;;;27.12;34.62;98356.22;4518770;31;20151;-82
2022/07/07 07:11:16;;;;;;;4.60;1.90;;;;;;;27.78;33.00;98351.81;4504592;31;20120;-81
2022/07/07 07:13:47;;;;;;;3.55;1.73;;;;;;;27.87;33.90;98366.72;4504583;31;20171;-82
2022/07/07 07:16:15;;;;;;;3.25;1.90;;;;;;;27.88;32.43;98363.06;4518455;31;20092;-82
2022/07/07 07:18:44;;;;;;;3.25;1.73;;;;;;;27.40;32.71;98359.38;4518760;31;20479;-82
2022/07/07 07:21:11;;;;;;;3.40;1.80;;;;;;;28.18;32.12;98362.34;4518889;31;20162;-82
2022/07/07 07:23:39;;;;;;;3.35;1.90;;;;;;;28.53;32.53;98354.97;4518764;31;20433;-82
2022/07/07 07:26:07;;;;;;;8.98;3.58;;;;;;;28.67;31.62;98353.41;4518376;31;20171;-81
2022/07/07 07:28:34;;;;;;;6.18;2.03;;;;;;;29.14;33.10;98355.19;4518491;31;20142;-83
2022/07/07 07:31:01;;;;;;;5.70;2.33;;;;;;;28.77;36.51;98370.78;4504332;31;20108;-82
2022/07/07 07:33:31;;;;;;;4.87;2.55;;;;;;;28.46;40.03;98364.59;4518029;31;20143;-81
2022/07/07 07:35:58;;;;;;;3.30;2.50;;;;;;;28.14;41.41;98361.00;4517798;31;20087;-83
2022/07/07 07:38:25;;;;;;;6.62;2.47;;;;;;;27.77;42.28;98363.41;4518398;31;20110;-81
2022/07/07 07:40:52;;;;;;;4.93;2.55;;;;;;;27.00;44.21;98363.56;4518307;31;20110;-82
2022/07/07 07:43:19;;;;;;;3.67;2.58;;;;;;;26.87;44.41;98375.63;4518230;31;20104;-81
2022/07/07 07:45:46;;;;;;;5.62;2.80;;;;;;;26.56;45.07;98380.63;4518093;31;20467;-80
2022/07/07 07:48:13;;;;;;;5.55;2.60;;;;;;;26.08;45.94;98382.81;4518010;31;20103;-80
2022/07/07 07:50:41;;;;;;;5.78;2.58;;;;;;;25.78;44.36;98384.09;4518639;31;20247;-81
2022/07/07 07:53:08;;;;;;;5.12;2.58;;;;;;;25.50;44.52;98385.94;4520077;31;20175;-80
2022/07/07 07:55:36;;;;;;;7.20;2.42;;;;;;;25.47;45.08;98388.91;4520020;31;20067;-80
2022/07/07 07:58:02;;;;;;;7.20;2.90;;;;;;;25.33;43.62;98398.19;4519943;31;20155;-79
2022/07/07 08:00:30;;;;;;;5.53;2.62;;;;;;;25.22;44.23;98397.59;4505795;31;20474;-80
2022/07/07 08:03:04;;;;;;;4.50;2.40;;;;;;;25.17;44.07;98405.09;4506686;31;20092;-80
2022/07/07 08:05:31;;;;;;;5.47;2.35;;;;;;;24.91;43.71;98400.50;4519644;31;20148;-80
2022/07/07 08:07:58;;;;;;;5.25;2.30;;;;;;;25.12;44.59;98404.72;4520303;31;20115;-82
2022/07/07 08:10:25;;;;;;;4.80;2.15;;;;;;;25.26;43.98;98409.50;4519994;31;20096;-80
2022/07/07 08:12:52;;;;;;;4.55;2.10;;;;;;;25.02;43.57;98412.72;4520046;31;20504;-81
2022/07/07 08:15:19;;;;;;;3.85;2.20;;;;;;;25.11;43.16;98413.63;4519973;31;20131;-81
2022/07/07 08:17:48;;;;;;;5.47;2.40;;;;;;;24.68;43.79;98415.06;4519981;31;20650;-81
2022/07/07 08:20:16;;;;;;;5.40;2.58;;;;;;;24.29;43.66;98412.53;4520099;31;20175;-83
2022/07/07 08:22:43;;;;;;;5.75;2.53;;;;;;;23.91;45.14;98416.88;4520045;31;20175;-81
2022/07/07 08:25:10;;;;;;;5.68;2.60;;;;;;;24.04;46.87;98423.69;4519620;31;20084;-82
2022/07/07 08:27:37;;;;;;;5.75;2.85;;;;;;;23.51;50.43;98424.94;4520041;31;20132;-80
2022/07/07 08:30:05;;;;;;;7.18;3.08;;;;;;;23.11;52.83;98434.69;4520106;31;20139;-81
2022/07/07 08:32:32;;;;;;;6.95;3.40;;;;;;;23.03;55.96;98432.72;4519646;31;20096;-80
2022/07/07 08:34:59;;;;;;;9.45;3.37;;;;;;;22.70;57.04;98436.47;4519648;31;20151;-80
2022/07/07 08:37:26;;;;;;;5.68;3.37;;;;;;;22.53;57.70;98436.09;4505667;31;20183;-81
2022/07/07 08:39:53;;;;;;;6.25;3.37;;;;;;;22.66;56.85;98438.53;4519391;31;20130;-81
2022/07/07 08:42:21;;;;;;;8.52;3.58;;;;;;;22.77;56.96;98437.63;4519849;31;20088;-81
2022/07/07 08:44:48;;;;;;;7.22;3.67;;;;;;;22.59;57.99;98440.03;4519677;31;20147;-81
2022/07/07 08:47:16;;;;;;;7.93;3.90;;;;;;;22.80;58.03;98442.59;4519487;31;20110;-81
2022/07/07 08:49:43;;;;;;;10.27;4.03;;;;;;;22.85;58.41;98434.34;4519827;31;20130;-81
2022/07/07 08:52:10;;;;;;;6.30;3.78;;;;;;;22.90;57.96;98435.62;4505585;31;20092;-81
2022/07/07 08:54:41;;;;;;;11.32;3.58;;;;;;;23.00;57.60;98439.09;4505027;31;20106;-81
2022/07/07 08:57:09;;;;;;;7.07;3.62;;;;;;;22.89;57.03;98431.31;4505885;31;20119;-81
2022/07/07 08:59:36;;;;;;;6.53;3.47;;;;;;;22.99;57.30;98429.56;4519315;31;20131;-81
2022/07/07 09:02:09;;;;;;;7.32;3.58;;;;;;;22.74;57.87;98437.84;4519397;31;20540;-80
2022/07/07 09:04:36;;;;;;;10.77;3.70;;;;;;;22.61;58.50;98439.88;4519591;31;20068;-81
2022/07/07 09:07:05;;;;;;;5.55;3.10;;;;;;;22.65;58.49;98426.38;4519487;31;20144;-81
2022/07/07 09:09:39;;;;;;;6.25;3.50;;;;;;;22.69;60.32;98432.19;4519704;31;20159;-81
2022/07/07 09:12:08;;;;;;;6.32;3.60;;;;;;;22.40;60.59;98424.16;4519695;31;20108;-81
2022/07/07 09:14:45;;;;;;;7.37;3.97;;;;;;;22.13;63.14;98427.31;4519082;31;20472;-82
2022/07/07 09:17:29;;;;;;;6.93;3.50;;;;;;;22.05;62.47;98420.03;4519505;31;20397;-81
2022/07/07 09:20:09;;;;;;;9.30;3.83;;;;;;;21.56;62.67;98408.34;4519591;31;20136;-80
2022/07/07 09:22:54;;;;;;;7.20;3.47;;;;;;;21.57;63.27;98406.53;4519252;31;20453;-81
2022/07/07 09:25:30;;;;;;;6.93;3.40;;;;;;;21.79;64.12;98403.81;4519173;31;20087;-81
2022/07/07 09:28:06;;;;;;;8.30;3.62;;;;;;;21.78;64.82;98406.56;4519352;31;20135;-82
2022/07/07 09:30:41;;;;;;;10.18;4.22;;;;;;;21.78;64.72;98415.28;4519547;31;20087;-81
2022/07/07 09:33:11;;;;;;;6.47;3.80;;;;;;;21.67;64.94;98410.91;4519448;31;20148;-83
2022/07/07 09:39:19;;;;;;;7.93;3.78;;;;;;;21.87;64.96;98404.03;4519591;31;20110;-81
2022/07/07 09:41:46;;;;;;;8.35;3.90;;;;;;;21.80;65.42;98410.75;4519390;31;20135;-80
2022/07/07 09:44:12;;;;;;;9.25;3.90;;;;;;;22.01;64.43;98416.03;4519403;31;20149;-81
2022/07/07 09:50:20;;;;;;;7.37;3.53;;;;;;;21.53;65.02;98413.00;4519232;31;20475;-81
2022/07/07 09:52:47;;;;;;;8.10;4.30;;;;;;;21.46;67.45;98410.03;4519458;31;20138;-81
2022/07/07 09:58:57;;;;;;;7.22;3.85;;;;;;;21.80;67.00;98407.28;4519472;31;20643;-81
2022/07/07 10:01:29;;;;;;;7.37;3.70;;;;;;;21.82;66.42;98405.38;4519929;31;20147;-80
2022/07/07 10:04:01;;;;;;;6.15;3.53;;;;;;;22.05;65.49;98400.81;4519353;31;20088;-81
2022/07/07 10:09:49;;;;;;;6.78;3.80;;;;;;;22.39;64.30;98399.66;4519298;31;20131;-83
2022/07/07 10:12:16;;;;;;;9.63;3.87;;;;;;;22.34;63.33;98401.03;4519431;31;20102;-83
2022/07/07 10:18:51;;;;;;;6.53;3.72;;;;;;;22.70;62.41;98403.13;4519170;31;20136;-84
2022/07/07 10:21:18;;;;;;;6.43;3.60;;;;;;;22.96;61.73;98392.97;4519177;31;20101;-84
2022/07/07 10:23:46;;;;;;;9.00;3.50;;;;;;;23.26;59.66;98388.59;4504720;31;20099;-84
2022/07/07 10:29:54;;;;;;;7.40;3.47;;;;;;;23.44;59.20;98384.31;4519274;31;20205;-84
2022/07/07 10:32:37;;;;;;;6.60;3.20;;;;;;;23.97;57.05;98383.88;4518938;31;20456;-84
2022/07/07 10:41:13;;;;;;;4.62;2.67;;;;;;;25.88;49.46;98379.53;4519164;31;20102;-83
2022/07/07 10:43:42;;;;;;;4.50;2.85;;;;;;;25.71;48.75;98376.91;4504730;31;20107;-84
2022/07/07 10:49:55;;;;;;;4.87;2.80;;;;;;;25.39;50.65;98383.53;4518926;31;20110;-83
2022/07/07 10:52:24;;;;;;;4.80;2.60;;;;;;;25.50;49.50;98374.56;4518704;31;20127;-83
2022/07/07 10:58:58;;;;;;;6.50;2.85;;;;;;;25.28;49.83;98366.09;4518901;31;20114;-82
2022/07/07 11:01:28;;;;;;;7.62;3.10;;;;;;;24.93;50.06;98364.25;4518664;31;20108;-82
2022/07/07 11:03:56;;;;;;;6.93;2.75;;;;;;;25.35;49.42;98364.53;4518920;31;20156;-82
2022/07/07 11:10:12;;;;;;;5.78;2.70;;;;;;;25.25;48.50;98368.22;4518904;31;20172;-82
2022/07/07 11:12:43;;;;;;;4.00;2.55;;;;;;;25.18;48.86;98357.44;4518831;31;20135;-82
2022/07/07 11:18:57;;;;;;;7.10;2.47;;;;;;;25.47;47.86;98356.38;4518834;31;20106;-83
2022/07/07 11:21:37;;;;;;;4.35;2.42;;;;;;;25.21;48.49;98351.03;4518829;31;20160;-82
2022/07/07 11:24:15;;;;;;;5.45;2.67;;;;;;;25.13;49.24;98353.59;4518872;31;20410;-83
2022/07/07 11:30:23;;;;;;;6.12;2.80;;;;;;;25.35;49.15;98343.41;4518567;31;20128;-83
2022/07/07 11:32:50;;;;;;;5.18;2.37;;;;;;;25.14;50.14;98329.69;4518472;31;20155;-84
2022/07/07 11:41:03;;;;;;;4.10;2.45;;;;;;;25.39;49.07;98333.34;4518400;31;20578;-83
2022/07/07 11:43:30;;;;;;;4.18;2.50;;;;;;;25.62;48.70;98323.97;4518315;31;20170;-83
2022/07/07 11:49:40;;;;;;;4.20;2.53;;;;;;;25.17;49.92;98316.16;4518144;31;20094;-83
2022/07/07 11:52:16;;;;;;;5.00;2.80;;;;;;;25.45;48.38;98321.38;4518362;31;20083;-83
2022/07/07 12:01:35;;;;;;;3.97;2.53;;;;;;;26.33;47.42;98293.84;4518527;31;20500;-81
2022/07/07 12:04:20;;;;;;;7.05;2.53;;;;;;;27.02;44.49;98294.63;4518134;31;20140;-80
2022/07/07 12:06:48;;;;;;;5.00;2.60;;;;;;;27.05;43.96;98287.16;4518486;31;20088;-80
2022/07/07 12:09:19;;;;;;;4.03;2.60;;;;;;;27.25;42.58;98287.69;4518853;31;20135;-81
2022/07/07 12:11:46;;;;;;;4.78;2.50;;;;;;;27.65;42.12;98281.56;4505119;31;20091;-81
2022/07/07 12:14:15;;;;;;;7.07;2.70;;;;;;;27.62;41.05;98278.37;4518959;31;20122;-81
2022/07/07 12:20:24;;;;;;;4.30;2.40;;;;;;;28.19;42.32;98275.62;4518352;31;20124;-80
2022/07/07 12:22:53;;;;;;;6.05;2.55;;;;;;;27.59;40.83;98270.78;4517920;31;20091;-82
2022/07/07 12:29:00;;;;;;;4.70;2.40;;;;;;;28.68;37.67;98262.16;4519220;31;20146;-81
2022/07/07 12:31:27;;;;;;;6.85;2.80;;;;;;;28.71;36.30;98267.94;4517834;31;20475;-82
2022/07/07 12:34:09;;;;;;;4.05;2.42;;;;;;;28.57;37.76;98258.06;4518477;31;20153;-81
2022/07/07 12:40:17;;;;;;;6.00;2.65;;;;;;;28.83;35.82;98255.09;4519876;31;20110;-80
2022/07/07 12:42:45;;;;;;;5.68;2.60;;;;;;;28.25;37.61;98259.00;4520479;31;20160;-80
2022/07/07 12:48:43;;;;;;;10.07;2.80;;;;;;;27.26;38.52;98262.84;4520150;31;20102;-79
2022/07/07 12:51:10;;;;;;;9.52;3.00;;;;;;;26.73;38.44;98255.31;4519702;31;20126;-80
2022/07/07 12:53:38;;;;;;;6.82;2.70;;;;;;;26.43;39.05;98262.00;4504368;31;20167;-81